Time;durP1;ratioP1;P1;durP2;ratioP2;P2;SDS_P1;SDS_P2;PMS_P1;PMS_P2;Temp;Humidity;BMP_temperature;BMP_pressure;BME280_temperature;BME280_humidity;BME280_pressure;Samples;Min_cycle;Max_cycle;Signal;HPM_P1;HPM_P2
2023/12/17 00:01:36;;;;;;;;;;;;;;;2.46;75.36;103169.98;106546;1269;97862;-68
2023/12/17 00:04:04;;;;;;;;;;;;;;;2.48;75.37;103170.65;106612;1268;111967;-66
2023/12/17 00:06:35;;;;;;;;;;;;;;;2.50;75.40;103173.99;106509;1269;108391;-66
2023/12/17 00:09:04;;;;;;;;;;;;;;;2.47;75.39;103169.60;106380;1268;109450;-65
2023/12/17 00:11:38;;;;;;;;;;;;;;;2.45;75.52;103171.06;106452;1270;97862;-64
2023/12/17 00:14:08;;;;;;;;;;;;;;;2.46;75.49;103168.38;106550;1268;97854;-67
2023/12/17 00:16:36;;;;;;;;;;;;;;;2.42;75.58;103168.63;106516;1273;111167;-69
2023/12/17 00:19:04;;;;;;;;;;;;;;;2.41;75.49;103165.81;106489;1268;108451;-68
2023/12/17 00:21:32;;;;;;;;;;;;;;;2.42;75.62;103162.79;106491;1268;108209;-66
2023/12/17 00:24:01;;;;;;;;;;;;;;;2.43;75.54;103165.42;106484;1268;97962;-67
2023/12/17 00:26:29;;;;;;;;;;;;;;;2.43;75.36;103166.84;106445;1268;97852;-66
2023/12/17 00:28:57;;;;;;;;;;;;;;;2.39;75.31;103161.07;106468;1268;111490;-65
2023/12/17 00:31:25;;;;;;;;;;;;;;;2.35;75.47;103162.70;106622;1268;108017;-67
2023/12/17 00:33:53;;;;;;;;;;;;;;;2.37;75.40;103164.09;106546;1269;107860;-67
2023/12/17 00:36:22;;;;;;;;;;;;;;;2.37;75.39;103166.94;106547;1268;97868;-69
2023/12/17 00:38:50;;;;;;;;;;;;;;;2.38;75.62;103166.75;106558;1268;98524;-67
2023/12/17 00:41:18;;;;;;;;;;;;;;;2.37;75.34;103158.96;106485;1268;111343;-63
2023/12/17 00:43:46;;;;;;;;;;;;;;;2.37;75.56;103153.84;106468;1268;108494;-65
2023/12/17 00:46:14;;;;;;;;;;;;;;;2.39;75.46;103156.81;106486;1268;107827;-65
2023/12/17 00:48:42;;;;;;;;;;;;;;;2.40;75.58;103153.77;106480;1268;97980;-66
2023/12/17 00:51:11;;;;;;;;;;;;;;;2.36;75.40;103147.28;106487;1268;97758;-67
2023/12/17 00:53:39;;;;;;;;;;;;;;;2.33;75.34;103145.02;106505;1268;111281;-67
2023/12/17 00:56:08;;;;;;;;;;;;;;;2.30;75.30;103149.15;106474;1268;108251;-66
2023/12/17 00:58:36;;;;;;;;;;;;;;;2.25;75.31;103155.24;106438;1268;108213;-67
2023/12/17 01:01:04;;;;;;;;;;;;;;;2.18;75.31;103148.45;106521;1268;97978;-67
2023/12/17 01:03:33;;;;;;;;;;;;;;;2.12;75.48;103138.79;106584;1268;97847;-67
2023/12/17 01:06:02;;;;;;;;;;;;;;;2.06;75.79;103131.09;106576;1268;112115;-68
2023/12/17 01:08:30;;;;;;;;;;;;;;;2.00;76.15;103132.07;106558;1268;108615;-71
2023/12/17 01:10:58;;;;;;;;;;;;;;;1.95;76.16;103128.61;106503;1268;107306;-66
2023/12/17 01:13:27;;;;;;;;;;;;;;;1.91;76.03;103128.31;106506;1268;97845;-66
2023/12/17 01:15:58;;;;;;;;;;;;;;;1.89;76.47;103122.49;106428;1268;97870;-67
2023/12/17 01:18:26;;;;;;;;;;;;;;;1.88;76.44;103120.02;106515;1268;111994;-64
2023/12/17 01:20:55;;;;;;;;;;;;;;;1.88;76.43;103110.13;106500;1269;107374;-68
2023/12/17 01:23:23;;;;;;;;;;;;;;;1.89;76.46;103104.79;106486;1268;108348;-67
2023/12/17 01:25:51;;;;;;;;;;;;;;;1.86;76.39;103099.90;106488;1268;97771;-67
2023/12/17 01:28:19;;;;;;;;;;;;;;;1.80;76.25;103098.55;106499;1268;97867;-67
2023/12/17 01:30:47;;;;;;;;;;;;;;;1.73;76.55;103094.94;106462;1268;111086;-67
2023/12/17 01:33:16;;;;;;;;;;;;;;;1.67;76.49;103092.89;106467;1272;108328;-65
2023/12/17 01:35:44;;;;;;;;;;;;;;;1.63;76.60;103094.71;106459;1268;107799;-67
2023/12/17 01:38:13;;;;;;;;;;;;;;;1.60;76.77;103102.02;106481;1273;97878;-67
2023/12/17 01:40:41;;;;;;;;;;;;;;;1.56;76.85;103098.52;106494;1268;98580;-65
2023/12/17 01:43:09;;;;;;;;;;;;;;;1.52;77.03;103091.15;106502;1268;111219;-64
2023/12/17 01:45:37;;;;;;;;;;;;;;;1.48;77.34;103090.86;106462;1268;107450;-64
2023/12/17 01:48:06;;;;;;;;;;;;;;;1.46;77.54;103083.98;106466;1268;107635;-64
2023/12/17 01:50:34;;;;;;;;;;;;;;;1.46;77.57;103090.88;106465;1272;97926;-66
2023/12/17 01:53:02;;;;;;;;;;;;;;;1.44;77.69;103086.84;106523;1268;97822;-65
2023/12/17 01:55:30;;;;;;;;;;;;;;;1.40;77.44;103086.70;106460;1269;111363;-68
2023/12/17 01:57:59;;;;;;;;;;;;;;;1.38;77.57;103080.73;106508;1268;107369;-67
2023/12/17 02:00:27;;;;;;;;;;;;;;;1.38;77.64;103078.79;106491;1272;107407;-67
2023/12/17 02:02:55;;;;;;;;;;;;;;;1.34;77.71;103073.54;106465;1268;97789;-68
2023/12/17 02:05:24;;;;;;;;;;;;;;;1.30;77.61;103066.33;106465;1268;97766;-68
2023/12/17 02:07:52;;;;;;;;;;;;;;;1.29;77.75;103065.47;106515;1268;110952;-66
2023/12/17 02:10:20;;;;;;;;;;;;;;;1.25;77.57;103071.16;106471;1271;106667;-68
2023/12/17 02:12:48;;;;;;;;;;;;;;;1.23;77.60;103075.60;106483;1268;107843;-66
2023/12/17 02:15:17;;;;;;;;;;;;;;;1.21;77.77;103075.81;106434;1268;97858;-67
2023/12/17 02:17:45;;;;;;;;;;;;;;;1.15;77.70;103077.12;106455;1268;97732;-65
2023/12/17 02:20:14;;;;;;;;;;;;;;;1.11;78.02;103076.65;106476;1268;111635;-65
2023/12/17 02:22:42;;;;;;;;;;;;;;;1.12;78.26;103072.19;106506;1272;107691;-64
2023/12/17 02:25:11;;;;;;;;;;;;;;;1.09;77.97;103068.00;106504;1268;108395;-66
2023/12/17 02:27:39;;;;;;;;;;;;;;;1.04;77.77;103066.64;106456;1268;97854;-67
2023/12/17 02:30:09;;;;;;;;;;;;;;;1.00;77.71;103067.40;106450;1268;97742;-66
2023/12/17 02:32:37;;;;;;;;;;;;;;;0.99;77.96;103065.98;106572;1268;111532;-66
2023/12/17 02:35:05;;;;;;;;;;;;;;;0.99;77.77;103067.06;106433;1272;108716;-67
2023/12/17 02:37:33;;;;;;;;;;;;;;;0.99;77.90;103067.94;106528;1268;107148;-68
2023/12/17 02:40:02;;;;;;;;;;;;;;;1.03;77.98;103071.42;106485;1268;97869;-69
2023/12/17 02:42:30;;;;;;;;;;;;;;;1.03;77.80;103074.77;106514;1268;97854;-67
2023/12/17 02:44:58;;;;;;;;;;;;;;;1.00;77.61;103074.45;106497;1269;111763;-65
2023/12/17 02:47:26;;;;;;;;;;;;;;;0.94;77.43;103074.70;106517;1268;107184;-67
2023/12/17 02:49:55;;;;;;;;;;;;;;;0.94;77.72;103072.24;106492;1268;108236;-69
2023/12/17 02:52:26;;;;;;;;;;;;;;;0.94;77.64;103074.88;106587;1267;97941;-67
2023/12/17 02:54:54;;;;;;;;;;;;;;;0.91;77.50;103082.50;106567;1268;97808;-68
2023/12/17 02:57:25;;;;;;;;;;;;;;;0.83;77.20;103085.94;106493;1268;111586;-71
2023/12/17 02:59:53;;;;;;;;;;;;;;;0.66;76.87;103091.23;106505;1268;108592;-71
2023/12/17 03:02:22;;;;;;;;;;;;;;;0.57;77.09;103092.55;106485;1268;108301;-66
2023/12/17 03:04:50;;;;;;;;;;;;;;;0.52;77.32;103093.85;106474;1268;97865;-67
2023/12/17 03:07:18;;;;;;;;;;;;;;;0.44;77.34;103096.21;106499;1268;97787;-67
2023/12/17 03:09:47;;;;;;;;;;;;;;;0.37;77.61;103092.74;106536;1268;112102;-67
2023/12/17 03:12:17;;;;;;;;;;;;;;;0.30;77.39;103098.27;106499;1268;108083;-67
2023/12/17 03:14:45;;;;;;;;;;;;;;;0.25;77.59;103096.88;106502;1268;107136;-67
2023/12/17 03:17:13;;;;;;;;;;;;;;;0.22;77.78;103089.16;106486;1268;97878;-66
2023/12/17 03:19:41;;;;;;;;;;;;;;;0.20;77.50;103085.27;106490;1268;97845;-67
2023/12/17 03:22:09;;;;;;;;;;;;;;;0.18;77.46;103083.02;106527;1269;111712;-65
2023/12/17 03:24:37;;;;;;;;;;;;;;;0.17;77.65;103086.19;106520;1268;107512;-65
2023/12/17 03:27:05;;;;;;;;;;;;;;;0.17;77.58;103091.84;106494;1268;107316;-65
2023/12/17 03:29:34;;;;;;;;;;;;;;;0.18;77.54;103088.66;106502;1268;97850;-67
2023/12/17 03:32:02;;;;;;;;;;;;;;;0.15;77.41;103084.96;106533;1268;97847;-67
2023/12/17 03:34:32;;;;;;;;;;;;;;;0.14;77.40;103079.67;106489;1270;111704;-67
2023/12/17 03:37:00;;;;;;;;;;;;;;;0.13;77.28;103071.58;106518;1268;107859;-66
2023/12/17 03:39:28;;;;;;;;;;;;;;;0.06;77.02;103065.44;106466;1268;108261;-66
2023/12/17 03:41:56;;;;;;;;;;;;;;;-0.00;76.95;103063.38;106517;1268;98486;-68
2023/12/17 03:44:24;;;;;;;;;;;;;;;-0.07;76.85;103060.07;106495;1268;97935;-67
2023/12/17 03:46:52;;;;;;;;;;;;;;;-0.15;76.65;103056.77;106508;1268;111574;-66
2023/12/17 03:49:20;;;;;;;;;;;;;;;-0.23;76.65;103051.36;106467;1268;108059;-65
2023/12/17 03:51:49;;;;;;;;;;;;;;;-0.29;76.66;103048.23;106512;1268;108198;-69
2023/12/17 03:54:17;;;;;;;;;;;;;;;-0.35;76.71;103054.45;106521;1269;97856;-69
2023/12/17 03:56:46;;;;;;;;;;;;;;;-0.40;76.68;103065.39;106506;1268;97778;-67
2023/12/17 03:59:15;;;;;;;;;;;;;;;-0.44;76.73;103068.60;106533;1268;111332;-65
2023/12/17 04:01:44;;;;;;;;;;;;;;;-0.49;76.65;103070.55;106538;1268;108327;-67
2023/12/17 04:04:13;;;;;;;;;;;;;;;-0.54;76.64;103071.65;106476;1268;107450;-66
2023/12/17 04:06:42;;;;;;;;;;;;;;;-0.60;76.53;103062.86;106512;1268;97868;-66
2023/12/17 04:09:10;;;;;;;;;;;;;;;-0.65;76.71;103057.58;106540;1268;97971;-68
2023/12/17 04:11:39;;;;;;;;;;;;;;;-0.69;76.77;103056.02;106528;1268;112966;-66
2023/12/17 04:14:07;;;;;;;;;;;;;;;-0.70;76.93;103057.08;106523;1271;107968;-66
2023/12/17 04:16:35;;;;;;;;;;;;;;;-0.72;76.92;103048.27;106506;1268;108159;-65
2023/12/17 04:19:03;;;;;;;;;;;;;;;-0.73;77.05;103041.77;106469;1268;97859;-67
2023/12/17 04:21:32;;;;;;;;;;;;;;;-0.76;77.13;103040.54;106567;1268;97764;-66
2023/12/17 04:24:00;;;;;;;;;;;;;;;-0.80;77.10;103032.27;106487;1268;110452;-66
2023/12/17 04:26:28;;;;;;;;;;;;;;;-0.82;77.25;103030.18;106485;1268;108075;-67
2023/12/17 04:28:56;;;;;;;;;;;;;;;-0.82;77.44;103029.48;106467;1268;107442;-67
2023/12/17 04:31:24;;;;;;;;;;;;;;;-0.78;77.49;103028.92;106420;1268;97857;-66
2023/12/17 04:33:52;;;;;;;;;;;;;;;-0.76;77.60;103023.98;106461;1268;97844;-66
2023/12/17 04:36:20;;;;;;;;;;;;;;;-0.74;77.54;103016.92;106485;1268;111085;-65
2023/12/17 04:38:49;;;;;;;;;;;;;;;-0.76;77.39;103019.04;106538;1269;108253;-68
2023/12/17 04:41:17;;;;;;;;;;;;;;;-0.76;77.57;103020.10;106414;1270;108265;-67
2023/12/17 04:43:45;;;;;;;;;;;;;;;-0.78;77.62;103022.58;106431;1270;97853;-67
2023/12/17 04:46:14;;;;;;;;;;;;;;;-0.80;77.46;103022.92;106499;1268;97865;-69
2023/12/17 04:48:42;;;;;;;;;;;;;;;-0.82;77.32;103027.73;106512;1272;111992;-69
2023/12/17 04:51:11;;;;;;;;;;;;;;;-0.84;77.48;103027.02;106506;1268;107942;-67
2023/12/17 04:53:39;;;;;;;;;;;;;;;-0.86;77.49;103020.16;106473;1268;106497;-67
2023/12/17 04:56:07;;;;;;;;;;;;;;;-0.87;77.52;103012.05;106511;1268;97853;-67
2023/12/17 04:58:36;;;;;;;;;;;;;;;-0.87;77.67;103013.64;106544;1268;97839;-66
2023/12/17 05:01:04;;;;;;;;;;;;;;;-0.87;77.70;103015.40;106473;1268;111312;-66
2023/12/17 05:03:32;;;;;;;;;;;;;;;-0.86;77.78;103011.36;106506;1268;108294;-68
2023/12/17 05:06:01;;;;;;;;;;;;;;;-0.85;77.69;103001.84;106470;1268;108056;-66
2023/12/17 05:08:30;;;;;;;;;;;;;;;-0.84;77.86;103005.52;106501;1268;97881;-67
2023/12/17 05:10:58;;;;;;;;;;;;;;;-0.83;77.76;102996.17;106485;1268;97882;-66
2023/12/17 05:13:26;;;;;;;;;;;;;;;-0.82;77.74;102985.77;106499;1268;111101;-67
2023/12/17 05:15:54;;;;;;;;;;;;;;;-0.82;77.69;102981.89;106505;1268;109121;-66
2023/12/17 05:18:22;;;;;;;;;;;;;;;-0.83;77.83;102980.67;106526;1268;108096;-67
2023/12/17 05:20:50;;;;;;;;;;;;;;;-0.83;77.91;102974.15;106500;1268;97782;-67
2023/12/17 05:23:18;;;;;;;;;;;;;;;-0.82;77.89;102970.27;106541;1268;97881;-66
2023/12/17 05:25:46;;;;;;;;;;;;;;;-0.82;77.95;102977.85;106530;1268;112245;-66
2023/12/17 05:28:15;;;;;;;;;;;;;;;-0.83;77.98;102978.73;106508;1268;107950;-66
2023/12/17 05:30:43;;;;;;;;;;;;;;;-0.84;77.78;102978.56;106495;1268;106729;-66
2023/12/17 05:33:14;;;;;;;;;;;;;;;-0.86;77.83;102970.65;106445;1268;97960;-67
2023/12/17 05:35:42;;;;;;;;;;;;;;;-0.87;77.89;102975.59;106493;1268;97815;-67
2023/12/17 05:38:10;;;;;;;;;;;;;;;-0.85;77.89;102983.15;106548;1268;111957;-66
2023/12/17 05:40:38;;;;;;;;;;;;;;;-0.83;78.03;102980.15;106494;1268;107774;-67
2023/12/17 05:43:08;;;;;;;;;;;;;;;-0.81;77.97;102985.95;106530;1268;108601;-67
2023/12/17 05:45:36;;;;;;;;;;;;;;;-0.80;78.00;102992.98;106505;1268;97969;-65
2023/12/17 05:48:18;;;;;;;;;;;;;;;-0.78;78.14;102991.77;106481;1268;97949;-67
2023/12/17 05:50:47;;;;;;;;;;;;;;;-0.76;78.12;102993.50;106502;1268;111794;-67
2023/12/17 05:53:16;;;;;;;;;;;;;;;-0.75;77.95;102990.49;106518;1272;107611;-66
2023/12/17 05:55:44;;;;;;;;;;;;;;;-0.73;77.94;102990.85;106476;1272;108645;-67
2023/12/17 05:58:12;;;;;;;;;;;;;;;-0.73;77.99;102993.84;106475;1268;97875;-66
2023/12/17 06:00:40;;;;;;;;;;;;;;;-0.75;77.94;102999.30;106475;1273;97885;-66
2023/12/17 06:03:08;;;;;;;;;;;;;;;-0.72;78.02;102993.14;106462;1268;111938;-67
2023/12/17 06:05:37;;;;;;;;;;;;;;;-0.72;78.01;102991.19;106563;1268;108600;-66
2023/12/17 06:08:05;;;;;;;;;;;;;;;-0.69;78.19;102986.77;106493;1268;107935;-64
2023/12/17 06:10:34;;;;;;;;;;;;;;;-0.64;78.33;102981.98;106469;1268;97853;-64
2023/12/17 06:13:02;;;;;;;;;;;;;;;-0.58;78.57;102980.88;106526;1268;97751;-67
2023/12/17 06:15:31;;;;;;;;;;;;;;;-0.51;78.83;102985.42;106466;1268;111177;-65
2023/12/17 06:17:59;;;;;;;;;;;;;;;-0.42;79.09;102988.52;106500;1268;108069;-65
2023/12/17 06:20:27;;;;;;;;;;;;;;;-0.32;79.14;102993.23;106504;1268;107018;-67
2023/12/17 06:22:56;;;;;;;;;;;;;;;-0.23;79.33;102990.86;106517;1268;97932;-66
2023/12/17 06:25:25;;;;;;;;;;;;;;;-0.14;79.36;102987.63;106589;1268;97844;-67
2023/12/17 06:27:54;;;;;;;;;;;;;;;-0.06;79.29;102989.86;106495;1273;110895;-67
2023/12/17 06:30:22;;;;;;;;;;;;;;;0.02;79.45;102984.31;106457;1268;107982;-69
2023/12/17 06:32:50;;;;;;;;;;;;;;;0.10;79.50;102984.60;106481;1269;107004;-67
2023/12/17 06:35:19;;;;;;;;;;;;;;;0.20;79.65;102982.58;106479;1268;97857;-65
2023/12/17 06:37:47;;;;;;;;;;;;;;;0.30;79.41;102985.13;106511;1273;97904;-68
2023/12/17 06:40:16;;;;;;;;;;;;;;;0.41;79.29;102980.60;106539;1268;111266;-68
2023/12/17 06:42:44;;;;;;;;;;;;;;;0.56;79.28;102981.33;106494;1268;107875;-70
2023/12/17 06:45:13;;;;;;;;;;;;;;;0.64;78.83;102978.58;106451;1268;107736;-67
2023/12/17 06:47:41;;;;;;;;;;;;;;;0.75;79.10;102977.40;106457;1268;97859;-68
2023/12/17 06:50:10;;;;;;;;;;;;;;;0.85;79.00;102976.75;106534;1268;97775;-66
2023/12/17 06:52:38;;;;;;;;;;;;;;;0.94;79.04;102972.75;106513;1268;111563;-70
2023/12/17 06:55:06;;;;;;;;;;;;;;;1.00;78.81;102969.30;106504;1267;107560;-68
2023/12/17 06:57:35;;;;;;;;;;;;;;;1.06;78.64;102963.73;106472;1268;108255;-67
2023/12/17 07:00:03;;;;;;;;;;;;;;;1.15;78.23;102963.29;106467;1268;97847;-68
2023/12/17 07:02:33;;;;;;;;;;;;;;;1.20;78.12;102958.44;106455;1268;97736;-67
2023/12/17 07:05:02;;;;;;;;;;;;;;;1.30;77.67;102954.08;106504;1268;112278;-67
2023/12/17 07:07:30;;;;;;;;;;;;;;;1.40;77.74;102951.96;106504;1268;107902;-67
2023/12/17 07:09:58;;;;;;;;;;;;;;;1.54;77.69;102944.86;106521;1268;107396;-67
2023/12/17 07:12:26;;;;;;;;;;;;;;;1.65;77.84;102942.75;106476;1268;97901;-66
2023/12/17 07:14:55;;;;;;;;;;;;;;;1.74;77.80;102942.25;106497;1273;97914;-66
2023/12/17 07:17:23;;;;;;;;;;;;;;;1.81;77.66;102943.20;106400;1271;112233;-67
2023/12/17 07:19:52;;;;;;;;;;;;;;;1.85;77.40;102940.46;106445;1271;108643;-68
2023/12/17 07:22:22;;;;;;;;;;;;;;;1.90;77.26;102940.21;106468;1268;108318;-66
2023/12/17 07:24:50;;;;;;;;;;;;;;;1.94;76.97;102941.20;106494;1268;97908;-65
2023/12/17 07:27:19;;;;;;;;;;;;;;;1.97;76.21;102944.14;106473;1268;97843;-68
2023/12/17 07:29:47;;;;;;;;;;;;;;;2.03;75.08;102938.74;106531;1268;111536;-70
2023/12/17 07:32:15;;;;;;;;;;;;;;;2.10;74.55;102938.45;106446;1268;108421;-68
2023/12/17 07:34:43;;;;;;;;;;;;;;;2.17;73.87;102932.48;106468;1272;107932;-66
2023/12/17 07:37:12;;;;;;;;;;;;;;;2.22;73.82;102925.65;106464;1268;97857;-69
2023/12/17 07:39:40;;;;;;;;;;;;;;;2.30;73.76;102919.13;106521;1268;97876;-66
2023/12/17 07:42:08;;;;;;;;;;;;;;;2.36;73.03;102917.95;106521;1272;111758;-68
2023/12/17 07:44:36;;;;;;;;;;;;;;;2.44;73.43;102909.30;106474;1268;108399;-66
2023/12/17 07:47:05;;;;;;;;;;;;;;;2.53;73.22;102909.30;106484;1269;106716;-66
2023/12/17 07:49:34;;;;;;;;;;;;;;;2.61;71.15;102916.03;106465;1268;97964;-67
2023/12/17 07:52:02;;;;;;;;;;;;;;;2.68;71.18;102916.60;106526;1268;97860;-67
2023/12/17 07:54:32;;;;;;;;;;;;;;;2.77;70.27;102919.42;106532;1268;110909;-67
2023/12/17 07:57:00;;;;;;;;;;;;;;;2.93;70.71;102916.62;106555;1268;108719;-66
2023/12/17 07:59:29;;;;;;;;;;;;;;;3.03;68.98;102919.21;106474;1268;108375;-66
2023/12/17 08:01:57;;;;;;;;;;;;;;;3.14;69.49;102920.92;106480;1268;97873;-67
2023/12/17 08:04:25;;;;;;;;;;;;;;;3.24;68.06;102923.89;106406;1267;97706;-68
2023/12/17 08:06:53;;;;;;;;;;;;;;;3.34;67.14;102920.83;106528;1268;111437;-67
2023/12/17 08:09:21;;;;;;;;;;;;;;;3.44;66.34;102922.17;106490;1268;108677;-66
2023/12/17 08:11:49;;;;;;;;;;;;;;;3.55;67.11;102916.42;106470;1268;107808;-67
2023/12/17 08:14:18;;;;;;;;;;;;;;;3.68;66.84;102911.66;106446;1268;97875;-67
2023/12/17 08:16:46;;;;;;;;;;;;;;;3.86;66.74;102903.58;106508;1268;97934;-66
2023/12/17 08:19:14;;;;;;;;;;;;;;;4.10;66.83;102907.40;106513;1268;111369;-67
2023/12/17 08:21:43;;;;;;;;;;;;;;;4.33;63.41;102901.43;106450;1268;107936;-66
2023/12/17 08:24:11;;;;;;;;;;;;;;;4.52;61.48;102906.23;106491;1268;107664;-67
2023/12/17 08:26:39;;;;;;;;;;;;;;;4.65;61.05;102904.42;106481;1268;98000;-67
2023/12/17 08:29:08;;;;;;;;;;;;;;;4.71;61.12;102896.43;106505;1268;97735;-66
2023/12/17 08:31:36;;;;;;;;;;;;;;;4.75;60.28;102892.77;106512;1268;112380;-67
2023/12/17 08:34:04;;;;;;;;;;;;;;;4.76;60.71;102895.21;106504;1268;108410;-66
2023/12/17 08:36:33;;;;;;;;;;;;;;;4.76;60.02;102888.63;106448;1268;108312;-67
2023/12/17 08:39:01;;;;;;;;;;;;;;;4.76;60.11;102884.73;106478;1268;97893;-67
2023/12/17 08:41:31;;;;;;;;;;;;;;;4.76;60.18;102885.96;106517;1268;97959;-67
2023/12/17 08:44:00;;;;;;;;;;;;;;;4.78;58.39;102883.08;106515;1268;112166;-67
2023/12/17 08:46:28;;;;;;;;;;;;;;;4.76;58.41;102877.09;106480;1268;107521;-66
2023/12/17 08:48:56;;;;;;;;;;;;;;;4.77;57.18;102870.81;106491;1268;107334;-67
2023/12/17 08:51:24;;;;;;;;;;;;;;;4.81;57.52;102862.36;106472;1268;97850;-66
2023/12/17 08:53:53;;;;;;;;;;;;;;;4.85;57.00;102863.11;106484;1268;97958;-65
2023/12/17 08:56:21;;;;;;;;;;;;;;;4.88;57.72;102860.18;106489;1268;110682;-66
2023/12/17 08:58:50;;;;;;;;;;;;;;;4.95;56.33;102862.30;106483;1268;108643;-66
2023/12/17 09:01:18;;;;;;;;;;;;;;;4.98;55.91;102858.45;106458;1268;107811;-65
2023/12/17 09:03:47;;;;;;;;;;;;;;;5.06;56.34;102849.85;106479;1268;97855;-67
2023/12/17 09:06:15;;;;;;;;;;;;;;;5.16;56.12;102855.56;106505;1268;97864;-67
2023/12/17 09:08:43;;;;;;;;;;;;;;;5.28;56.12;102845.04;106476;1268;111907;-66
2023/12/17 09:11:12;;;;;;;;;;;;;;;5.51;56.07;102838.05;106491;1268;108046;-64
2023/12/17 09:13:40;;;;;;;;;;;;;;;6.06;54.32;102839.18;106479;1268;109336;-64
2023/12/17 09:16:08;;;;;;;;;;;;;;;6.48;53.04;102833.55;106473;1268;98516;-66
2023/12/17 09:18:38;;;;;;;;;;;;;;;6.77;52.18;102829.59;106479;1272;97881;-66
2023/12/17 09:21:07;;;;;;;;;;;;;;;7.22;51.79;102827.78;106487;1268;112466;-65
2023/12/17 09:23:35;;;;;;;;;;;;;;;7.51;50.18;102817.98;106494;1268;108623;-67
2023/12/17 09:26:04;;;;;;;;;;;;;;;7.62;48.72;102819.86;106386;1271;109133;-69
2023/12/17 09:28:32;;;;;;;;;;;;;;;7.68;50.73;102814.77;106495;1268;97857;-68
2023/12/17 09:31:01;;;;;;;;;;;;;;;7.71;49.33;102811.95;106511;1268;97814;-66
2023/12/17 09:33:29;;;;;;;;;;;;;;;7.56;48.04;102810.84;106525;1268;111302;-65
2023/12/17 09:35:57;;;;;;;;;;;;;;;7.41;49.38;102801.30;106498;1268;108088;-67
2023/12/17 09:38:26;;;;;;;;;;;;;;;7.37;48.94;102793.44;106502;1273;107152;-67
2023/12/17 09:40:54;;;;;;;;;;;;;;;7.37;49.10;102793.05;106451;1272;97897;-67
2023/12/17 09:43:24;;;;;;;;;;;;;;;7.36;48.64;102788.84;106451;1269;97865;-65
2023/12/17 09:45:53;;;;;;;;;;;;;;;7.44;48.80;102785.80;106512;1268;111962;-64
2023/12/17 09:48:23;;;;;;;;;;;;;;;7.64;48.64;102786.18;106520;1267;108744;-65
2023/12/17 09:50:52;;;;;;;;;;;;;;;7.88;48.14;102782.27;106492;1273;107761;-66
2023/12/17 09:53:21;;;;;;;;;;;;;;;8.01;46.93;102779.88;106479;1273;97959;-65
2023/12/17 09:55:49;;;;;;;;;;;;;;;7.87;47.47;102776.93;106531;1268;97943;-66
2023/12/17 09:58:17;;;;;;;;;;;;;;;7.85;48.28;102777.23;106511;1268;112070;-67
2023/12/17 10:00:48;;;;;;;;;;;;;;;7.99;47.59;102778.23;106525;1268;108008;-66
2023/12/17 10:03:16;;;;;;;;;;;;;;;8.23;47.13;102775.13;106522;1271;107975;-64
2023/12/17 10:05:49;;;;;;;;;;;;;;;8.51;47.27;102770.99;106529;1271;97899;-65
2023/12/17 10:08:18;;;;;;;;;;;;;;;8.70;45.39;102766.90;106554;1268;98500;-68
2023/12/17 10:10:46;;;;;;;;;;;;;;;8.64;44.72;102771.08;106492;1268;111200;-64
2023/12/17 10:13:18;;;;;;;;;;;;;;;8.54;45.46;102772.64;106513;1268;108349;-66
2023/12/17 10:15:51;;;;;;;;;;;;;;;8.46;45.98;102778.00;106350;1268;203695;-66
2023/12/17 10:18:20;;;;;;;;;;;;;;;8.35;45.58;102774.06;106439;1268;97909;-67
2023/12/17 10:20:49;;;;;;;;;;;;;;;8.22;45.29;102779.68;106491;1268;98830;-68
2023/12/17 10:23:17;;;;;;;;;;;;;;;8.06;46.15;102784.52;106472;1268;112113;-66
2023/12/17 10:25:46;;;;;;;;;;;;;;;7.92;46.22;102781.56;106464;1268;108446;-67
2023/12/17 10:28:14;;;;;;;;;;;;;;;7.82;46.76;102775.58;106470;1268;108217;-67
2023/12/17 10:30:43;;;;;;;;;;;;;;;7.77;47.24;102784.52;106484;1272;97978;-67
2023/12/17 10:33:16;;;;;;;;;;;;;;;7.75;47.37;102780.35;106489;1268;97853;-67
2023/12/17 10:35:45;;;;;;;;;;;;;;;7.76;47.44;102773.69;106465;1268;111625;-67
2023/12/17 10:38:14;;;;;;;;;;;;;;;7.78;48.28;102763.42;106521;1268;108502;-66
2023/12/17 10:40:44;;;;;;;;;;;;;;;7.80;48.40;102752.22;106457;1268;107252;-64
2023/12/17 10:43:14;;;;;;;;;;;;;;;7.80;47.91;102749.23;106510;1268;97854;-67
2023/12/17 10:45:43;;;;;;;;;;;;;;;7.75;48.26;102743.56;106519;1268;97860;-67
2023/12/17 10:48:13;;;;;;;;;;;;;;;7.70;48.87;102740.22;106541;1268;111564;-65
2023/12/17 10:50:42;;;;;;;;;;;;;;;7.70;48.91;102731.30;106523;1268;108538;-68
2023/12/17 10:53:11;;;;;;;;;;;;;;;7.69;47.53;102729.19;106453;1268;107870;-66
2023/12/17 10:55:40;;;;;;;;;;;;;;;7.63;47.56;102729.77;106483;1269;97833;-66
2023/12/17 10:58:12;;;;;;;;;;;;;;;7.61;47.30;102724.36;106466;1273;97790;-66
2023/12/17 11:00:42;;;;;;;;;;;;;;;7.59;47.45;102727.84;106509;1268;112995;-67
2023/12/17 11:03:11;;;;;;;;;;;;;;;7.58;47.39;102723.43;106530;1271;106896;-67
2023/12/17 11:05:53;;;;;;;;;;;;;;;7.55;47.66;102724.27;106475;1268;108292;-68
2023/12/17 11:08:22;;;;;;;;;;;;;;;7.48;47.68;102721.67;106468;1273;98620;-72
2023/12/17 11:10:50;;;;;;;;;;;;;;;7.43;47.60;102726.39;106504;1268;98113;-67
2023/12/17 11:13:24;;;;;;;;;;;;;;;7.39;47.96;102731.19;106499;1268;111511;-67
2023/12/17 11:15:54;;;;;;;;;;;;;;;7.36;48.08;102731.85;106527;1268;108009;-67
2023/12/17 11:18:25;;;;;;;;;;;;;;;7.34;48.64;102729.80;106507;1273;107616;-67
2023/12/17 11:20:53;;;;;;;;;;;;;;;7.33;48.02;102732.19;106518;1269;97870;-66
2023/12/17 11:23:23;;;;;;;;;;;;;;;7.29;48.16;102740.59;106508;1268;97771;-66
2023/12/17 11:25:53;;;;;;;;;;;;;;;7.24;48.46;102751.15;106490;1268;110859;-67
2023/12/17 11:28:25;;;;;;;;;;;;;;;7.22;49.02;102756.40;106467;1269;107613;-66
2023/12/17 11:30:54;;;;;;;;;;;;;;;7.25;49.64;102757.54;106479;1268;106880;-66
2023/12/17 11:33:23;;;;;;;;;;;;;;;7.29;50.11;102760.40;106444;1268;97963;-65
2023/12/17 11:35:52;;;;;;;;;;;;;;;7.30;49.34;102758.75;106531;1269;97848;-66
2023/12/17 11:38:20;;;;;;;;;;;;;;;7.32;49.81;102762.20;106523;1268;111919;-68
2023/12/17 11:40:49;;;;;;;;;;;;;;;7.36;49.65;102760.44;106511;1268;107440;-68
2023/12/17 11:43:16;;;;;;;;;;;;;;;7.36;49.68;102757.73;106493;1268;108350;-69
2023/12/17 11:45:47;;;;;;;;;;;;;;;7.37;48.57;102755.73;106515;1268;98055;-66
2023/12/17 11:48:20;;;;;;;;;;;;;;;7.35;49.15;102748.33;106558;1268;97868;-67
2023/12/17 11:50:56;;;;;;;;;;;;;;;7.35;48.82;102741.39;106526;1268;112419;-64
2023/12/17 11:53:26;;;;;;;;;;;;;;;7.33;48.81;102739.13;106573;1273;107437;-66
2023/12/17 11:55:55;;;;;;;;;;;;;;;7.33;48.94;102736.98;106484;1269;108423;-65
2023/12/17 11:58:24;;;;;;;;;;;;;;;7.35;49.21;102742.81;106516;1269;97875;-66
2023/12/17 12:01:02;;;;;;;;;;;;;;;7.38;48.73;102740.18;106493;1271;97865;-66
2023/12/17 12:03:31;;;;;;;;;;;;;;;7.42;48.29;102740.36;106543;1274;111947;-67
2023/12/17 12:06:06;;;;;;;;;;;;;;;7.45;48.50;102738.63;106503;1273;108551;-64
2023/12/17 12:08:34;;;;;;;;;;;;;;;7.51;48.79;102737.29;106499;1273;108669;-67
2023/12/17 12:11:03;;;;;;;;;;;;;;;7.57;48.65;102736.48;106512;1268;97925;-68
2023/12/17 12:13:35;;;;;;;;;;;;;;;7.57;48.74;102733.09;106516;1270;97923;-66
2023/12/17 12:16:04;;;;;;;;;;;;;;;7.61;48.95;102732.18;106486;1268;111505;-66
2023/12/17 12:18:32;;;;;;;;;;;;;;;7.66;49.61;102735.55;106519;1268;107008;-67
2023/12/17 12:21:00;;;;;;;;;;;;;;;7.71;49.56;102739.25;106470;1268;108079;-66
2023/12/17 12:23:29;;;;;;;;;;;;;;;7.75;49.81;102737.83;106475;1268;98051;-67
2023/12/17 12:25:58;;;;;;;;;;;;;;;7.79;50.20;102739.42;106570;1268;97741;-68
2023/12/17 12:28:28;;;;;;;;;;;;;;;7.83;49.70;102734.23;106552;1268;112050;-67
2023/12/17 12:31:07;;;;;;;;;;;;;;;7.85;49.63;102743.79;106552;1273;106895;-67
2023/12/17 12:33:35;;;;;;;;;;;;;;;7.89;50.09;102749.90;106475;1269;108176;-67
2023/12/17 12:36:06;;;;;;;;;;;;;;;7.90;50.08;102758.39;106502;1268;97910;-65